sensor_id;sensor_type;location;lat;lon;timestamp;temperature;humidity
10848;DHT22;5477;48.806;9.154;2023-06-01T00:00:40;14.50;99.90
10848;DHT22;5477;48.806;9.154;2023-06-01T00:03:09;14.40;99.90
10848;DHT22;5477;48.806;9.154;2023-06-01T00:05:37;14.50;99.90
10848;DHT22;5477;48.806;9.154;2023-06-01T00:08:05;14.50;99.90
10848;DHT22;5477;48.806;9.154;2023-06-01T00:10:33;14.50;99.90
10848;DHT22;5477;48.806;9.154;2023-06-01T00:13:03;14.50;99.90
10848;DHT22;5477;48.806;9.154;2023-06-01T00:15:30;14.60;99.90
10848;DHT22;5477;48.806;9.154;2023-06-01T00:17:58;14.60;99.90
10848;DHT22;5477;48.806;9.154;2023-06-01T00:20:27;14.50;99.90
10848;DHT22;5477;48.806;9.154;2023-06-01T00:23:03;14.50;99.90
10848;DHT22;5477;48.806;9.154;2023-06-01T00:25:32;14.30;99.90
10848;DHT22;5477;48.806;9.154;2023-06-01T00:28:00;14.10;99.90
10848;DHT22;5477;48.806;9.154;2023-06-01T00:30:30;14.10;99.90
10848;DHT22;5477;48.806;9.154;2023-06-01T00:32:58;14.10;99.90
10848;DHT22;5477;48.806;9.154;2023-06-01T00:35:26;14.10;99.90
10848;DHT22;5477;48.806;9.154;2023-06-01T00:37:54;14.10;99.90
10848;DHT22;5477;48.806;9.154;2023-06-01T00:40:22;14.10;99.90
10848;DHT22;5477;48.806;9.154;2023-06-01T00:42:50;14.00;99.90
10848;DHT22;5477;48.806;9.154;2023-06-01T00:45:18;14.00;99.90
10848;DHT22;5477;48.806;9.154;2023-06-01T00:47:47;13.90;99.90
10848;DHT22;5477;48.806;9.154;2023-06-01T00:50:15;13.90;99.90
10848;DHT22;5477;48.806;9.154;2023-06-01T00:52:43;13.90;99.90
10848;DHT22;5477;48.806;9.154;2023-06-01T00:55:13;13.90;99.90
10848;DHT22;5477;48.806;9.154;2023-06-01T00:57:42;13.90;99.90
10848;DHT22;5477;48.806;9.154;2023-06-01T01:00:11;13.90;99.90
10848;DHT22;5477;48.806;9.154;2023-06-01T01:02:41;13.80;99.90
10848;DHT22;5477;48.806;9.154;2023-06-01T01:05:12;13.70;99.90
10848;DHT22;5477;48.806;9.154;2023-06-01T01:07:51;13.70;99.90
10848;DHT22;5477;48.806;9.154;2023-06-01T01:10:29;13.60;99.90
10848;DHT22;5477;48.806;9.154;2023-06-01T01:13:06;13.60;99.90
10848;DHT22;5477;48.806;9.154;2023-06-01T01:15:43;13.60;99.90
10848;DHT22;5477;48.806;9.154;2023-06-01T01:18:20;13.60;99.90
10848;DHT22;5477;48.806;9.154;2023-06-01T01:20:55;13.60;99.90
10848;DHT22;5477;48.806;9.154;2023-06-01T01:23:43;13.60;99.90
10848;DHT22;5477;48.806;9.154;2023-06-01T01:26:24;13.60;99.90
10848;DHT22;5477;48.806;9.154;2023-06-01T01:29:00;13.60;99.90
10848;DHT22;5477;48.806;9.154;2023-06-01T01:31:30;13.50;99.90
10848;DHT22;5477;48.806;9.154;2023-06-01T01:33:59;13.40;99.90
10848;DHT22;5477;48.806;9.154;2023-06-01T01:36:29;13.40;99.90
10848;DHT22;5477;48.806;9.154;2023-06-01T01:38:57;13.40;99.90
10848;DHT22;5477;48.806;9.154;2023-06-01T01:41:25;13.30;99.90
10848;DHT22;5477;48.806;9.154;2023-06-01T01:43:53;13.30;99.90
10848;DHT22;5477;48.806;9.154;2023-06-01T01:46:26;13.20;99.90
10848;DHT22;5477;48.806;9.154;2023-06-01T01:49:04;13.30;99.90
10848;DHT22;5477;48.806;9.154;2023-06-01T01:51:40;13.30;99.90
10848;DHT22;5477;48.806;9.154;2023-06-01T01:54:12;13.40;99.90
10848;DHT22;5477;48.806;9.154;2023-06-01T01:56:41;13.40;99.90
10848;DHT22;5477;48.806;9.154;2023-06-01T01:59:10;13.30;99.90
10848;DHT22;5477;48.806;9.154;2023-06-01T02:01:39;13.30;99.90
10848;DHT22;5477;48.806;9.154;2023-06-01T02:04:09;13.20;99.90
10848;DHT22;5477;48.806;9.154;2023-06-01T02:06:37;13.30;99.90
10848;DHT22;5477;48.806;9.154;2023-06-01T02:09:05;13.30;99.90
10848;DHT22;5477;48.806;9.154;2023-06-01T02:11:34;13.20;99.90
10848;DHT22;5477;48.806;9.154;2023-06-01T02:14:03;13.20;99.90
10848;DHT22;5477;48.806;9.154;2023-06-01T02:16:31;13.10;99.90
10848;DHT22;5477;48.806;9.154;2023-06-01T02:19:00;13.00;99.90
10848;DHT22;5477;48.806;9.154;2023-06-01T02:21:29;13.00;99.90
10848;DHT22;5477;48.806;9.154;2023-06-01T02:24:01;12.90;99.90
10848;DHT22;5477;48.806;9.154;2023-06-01T02:26:32;12.90;99.90
10848;DHT22;5477;48.806;9.154;2023-06-01T02:29:02;12.80;99.90
10848;DHT22;5477;48.806;9.154;2023-06-01T02:31:32;12.70;99.90
10848;DHT22;5477;48.806;9.154;2023-06-01T02:34:01;12.70;99.90
10848;DHT22;5477;48.806;9.154;2023-06-01T02:36:29;12.70;99.90
10848;DHT22;5477;48.806;9.154;2023-06-01T02:38:59;12.70;99.90
10848;DHT22;5477;48.806;9.154;2023-06-01T02:41:27;12.70;99.90
10848;DHT22;5477;48.806;9.154;2023-06-01T02:43:55;12.60;99.90
10848;DHT22;5477;48.806;9.154;2023-06-01T02:46:23;12.60;99.90
10848;DHT22;5477;48.806;9.154;2023-06-01T02:48:51;12.60;99.90
10848;DHT22;5477;48.806;9.154;2023-06-01T02:51:21;12.50;99.90
10848;DHT22;5477;48.806;9.154;2023-06-01T02:53:58;12.50;99.90
10848;DHT22;5477;48.806;9.154;2023-06-01T02:56:26;12.50;99.90
10848;DHT22;5477;48.806;9.154;2023-06-01T02:59:23;12.50;99.90
10848;DHT22;5477;48.806;9.154;2023-06-01T03:01:59;12.40;99.90
10848;DHT22;5477;48.806;9.154;2023-06-01T03:04:28;12.30;99.90
10848;DHT22;5477;48.806;9.154;2023-06-01T03:07:01;12.30;99.90
10848;DHT22;5477;48.806;9.154;2023-06-01T03:09:40;12.20;99.90
10848;DHT22;5477;48.806;9.154;2023-06-01T03:12:27;12.20;99.90
10848;DHT22;5477;48.806;9.154;2023-06-01T03:14:55;12.20;99.90
10848;DHT22;5477;48.806;9.154;2023-06-01T03:17:23;12.10;99.90
10848;DHT22;5477;48.806;9.154;2023-06-01T03:19:51;12.10;99.90
10848;DHT22;5477;48.806;9.154;2023-06-01T03:22:23;12.20;99.90
10848;DHT22;5477;48.806;9.154;2023-06-01T03:24:51;12.20;99.90
10848;DHT22;5477;48.806;9.154;2023-06-01T03:27:26;12.10;99.90
10848;DHT22;5477;48.806;9.154;2023-06-01T03:29:54;12.20;99.90
10848;DHT22;5477;48.806;9.154;2023-06-01T03:32:22;12.20;99.90
10848;DHT22;5477;48.806;9.154;2023-06-01T03:34:52;12.20;99.90
10848;DHT22;5477;48.806;9.154;2023-06-01T03:37:20;12.20;99.90
10848;DHT22;5477;48.806;9.154;2023-06-01T03:39:49;12.10;99.90
10848;DHT22;5477;48.806;9.154;2023-06-01T03:42:19;12.20;99.90
10848;DHT22;5477;48.806;9.154;2023-06-01T03:44:47;12.10;99.90
10848;DHT22;5477;48.806;9.154;2023-06-01T03:47:15;12.20;99.90
10848;DHT22;5477;48.806;9.154;2023-06-01T03:49:43;12.20;99.90
10848;DHT22;5477;48.806;9.154;2023-06-01T03:52:11;12.20;99.90
10848;DHT22;5477;48.806;9.154;2023-06-01T03:54:41;12.20;99.90
10848;DHT22;5477;48.806;9.154;2023-06-01T03:57:23;12.20;99.90
10848;DHT22;5477;48.806;9.154;2023-06-01T03:59:51;12.20;99.90
10848;DHT22;5477;48.806;9.154;2023-06-01T04:02:19;12.20;99.90
10848;DHT22;5477;48.806;9.154;2023-06-01T04:04:49;12.20;99.90
10848;DHT22;5477;48.806;9.154;2023-06-01T04:07:17;12.30;99.90
10848;DHT22;5477;48.806;9.154;2023-06-01T04:09:48;12.40;99.90
10848;DHT22;5477;48.806;9.154;2023-06-01T04:12:16;12.40;99.90
10848;DHT22;5477;48.806;9.154;2023-06-01T04:14:45;12.40;99.90
10848;DHT22;5477;48.806;9.154;2023-06-01T04:17:13;12.50;99.90
10848;DHT22;5477;48.806;9.154;2023-06-01T04:19:41;12.50;99.90
10848;DHT22;5477;48.806;9.154;2023-06-01T04:22:10;12.60;99.90
10848;DHT22;5477;48.806;9.154;2023-06-01T04:24:38;12.70;99.90
10848;DHT22;5477;48.806;9.154;2023-06-01T04:27:07;12.70;99.90
10848;DHT22;5477;48.806;9.154;2023-06-01T04:29:35;12.70;99.90
10848;DHT22;5477;48.806;9.154;2023-06-01T04:32:08;12.70;99.90
10848;DHT22;5477;48.806;9.154;2023-06-01T04:34:37;12.70;99.90
10848;DHT22;5477;48.806;9.154;2023-06-01T04:37:05;12.80;99.90
10848;DHT22;5477;48.806;9.154;2023-06-01T04:39:34;12.90;99.90
10848;DHT22;5477;48.806;9.154;2023-06-01T04:42:03;13.00;99.90
10848;DHT22;5477;48.806;9.154;2023-06-01T04:44:32;13.00;99.90
10848;DHT22;5477;48.806;9.154;2023-06-01T04:47:03;13.10;99.90
10848;DHT22;5477;48.806;9.154;2023-06-01T04:49:32;13.20;99.90
10848;DHT22;5477;48.806;9.154;2023-06-01T04:52:03;13.30;99.90
10848;DHT22;5477;48.806;9.154;2023-06-01T04:54:32;13.50;99.90
10848;DHT22;5477;48.806;9.154;2023-06-01T04:57:00;13.50;99.90
10848;DHT22;5477;48.806;9.154;2023-06-01T04:59:28;13.70;99.90
10848;DHT22;5477;48.806;9.154;2023-06-01T05:01:56;13.80;99.90
10848;DHT22;5477;48.806;9.154;2023-06-01T05:04:25;13.90;99.90
10848;DHT22;5477;48.806;9.154;2023-06-01T05:06:54;14.10;99.90
10848;DHT22;5477;48.806;9.154;2023-06-01T05:09:23;14.20;99.90
10848;DHT22;5477;48.806;9.154;2023-06-01T05:11:51;14.30;99.90
10848;DHT22;5477;48.806;9.154;2023-06-01T05:14:19;14.40;99.90
10848;DHT22;5477;48.806;9.154;2023-06-01T05:16:48;14.60;99.90
10848;DHT22;5477;48.806;9.154;2023-06-01T05:19:18;14.70;99.90
10848;DHT22;5477;48.806;9.154;2023-06-01T05:21:47;14.90;99.90
10848;DHT22;5477;48.806;9.154;2023-06-01T05:24:19;15.10;99.90
10848;DHT22;5477;48.806;9.154;2023-06-01T05:26:47;15.20;99.90
10848;DHT22;5477;48.806;9.154;2023-06-01T05:29:15;15.40;99.90
10848;DHT22;5477;48.806;9.154;2023-06-01T05:31:45;15.60;99.90
10848;DHT22;5477;48.806;9.154;2023-06-01T05:34:13;15.80;99.90
10848;DHT22;5477;48.806;9.154;2023-06-01T05:36:41;15.90;99.90
10848;DHT22;5477;48.806;9.154;2023-06-01T05:39:10;16.10;99.90
10848;DHT22;5477;48.806;9.154;2023-06-01T05:41:40;16.20;99.90
10848;DHT22;5477;48.806;9.154;2023-06-01T05:44:08;16.30;99.90
10848;DHT22;5477;48.806;9.154;2023-06-01T05:46:35;16.50;99.90
10848;DHT22;5477;48.806;9.154;2023-06-01T05:49:03;16.70;99.90
10848;DHT22;5477;48.806;9.154;2023-06-01T05:51:31;16.90;99.90
10848;DHT22;5477;48.806;9.154;2023-06-01T05:54:04;17.10;99.90
10848;DHT22;5477;48.806;9.154;2023-06-01T05:56:32;17.20;99.90
10848;DHT22;5477;48.806;9.154;2023-06-01T05:59:02;17.20;99.90
10848;DHT22;5477;48.806;9.154;2023-06-01T06:01:30;17.20;99.90
10848;DHT22;5477;48.806;9.154;2023-06-01T06:03:58;17.30;99.90
10848;DHT22;5477;48.806;9.154;2023-06-01T06:06:27;17.40;99.90
10848;DHT22;5477;48.806;9.154;2023-06-01T06:08:55;17.50;99.90
10848;DHT22;5477;48.806;9.154;2023-06-01T06:11:22;17.60;99.90
10848;DHT22;5477;48.806;9.154;2023-06-01T06:13:51;17.80;99.90
10848;DHT22;5477;48.806;9.154;2023-06-01T06:16:20;17.90;99.90
10848;DHT22;5477;48.806;9.154;2023-06-01T06:18:48;17.90;99.90
10848;DHT22;5477;48.806;9.154;2023-06-01T06:21:17;18.00;99.90
10848;DHT22;5477;48.806;9.154;2023-06-01T06:23:45;18.00;99.90
10848;DHT22;5477;48.806;9.154;2023-06-01T06:26:14;18.20;99.90
10848;DHT22;5477;48.806;9.154;2023-06-01T06:28:42;18.20;99.90
10848;DHT22;5477;48.806;9.154;2023-06-01T06:31:10;18.30;99.90
10848;DHT22;5477;48.806;9.154;2023-06-01T06:33:40;18.50;99.90
10848;DHT22;5477;48.806;9.154;2023-06-01T06:36:08;18.50;99.90
10848;DHT22;5477;48.806;9.154;2023-06-01T06:38:36;18.50;99.90
10848;DHT22;5477;48.806;9.154;2023-06-01T06:41:04;18.60;99.90
10848;DHT22;5477;48.806;9.154;2023-06-01T06:43:35;18.80;99.90
10848;DHT22;5477;48.806;9.154;2023-06-01T06:46:03;18.80;99.90
10848;DHT22;5477;48.806;9.154;2023-06-01T06:48:31;18.80;99.90
10848;DHT22;5477;48.806;9.154;2023-06-01T06:51:01;18.90;99.90
10848;DHT22;5477;48.806;9.154;2023-06-01T06:53:30;19.10;99.90
10848;DHT22;5477;48.806;9.154;2023-06-01T06:55:59;19.30;99.90
10848;DHT22;5477;48.806;9.154;2023-06-01T06:58:27;19.30;99.90
10848;DHT22;5477;48.806;9.154;2023-06-01T07:00:55;19.40;99.90
10848;DHT22;5477;48.806;9.154;2023-06-01T07:03:23;19.60;99.40
10848;DHT22;5477;48.806;9.154;2023-06-01T07:05:53;19.70;98.30
10848;DHT22;5477;48.806;9.154;2023-06-01T07:08:23;19.80;98.30
10848;DHT22;5477;48.806;9.154;2023-06-01T07:10:52;19.90;98.00
10848;DHT22;5477;48.806;9.154;2023-06-01T07:13:21;20.00;98.00
10848;DHT22;5477;48.806;9.154;2023-06-01T07:15:48;20.10;97.90
10848;DHT22;5477;48.806;9.154;2023-06-01T07:18:17;20.30;97.60
10848;DHT22;5477;48.806;9.154;2023-06-01T07:20:45;20.30;97.70
10848;DHT22;5477;48.806;9.154;2023-06-01T07:23:13;20.40;97.20
10848;DHT22;5477;48.806;9.154;2023-06-01T07:25:44;20.50;96.60
10848;DHT22;5477;48.806;9.154;2023-06-01T07:28:11;20.60;96.40
10848;DHT22;5477;48.806;9.154;2023-06-01T07:30:40;20.60;95.60
10848;DHT22;5477;48.806;9.154;2023-06-01T07:33:08;20.70;95.10
10848;DHT22;5477;48.806;9.154;2023-06-01T07:35:37;20.70;94.80
10848;DHT22;5477;48.806;9.154;2023-06-01T07:38:05;20.70;95.00
10848;DHT22;5477;48.806;9.154;2023-06-01T07:40:34;20.80;95.20
10848;DHT22;5477;48.806;9.154;2023-06-01T07:43:03;20.80;94.70
10848;DHT22;5477;48.806;9.154;2023-06-01T07:45:31;21.00;94.90
10848;DHT22;5477;48.806;9.154;2023-06-01T07:47:59;21.10;94.70
10848;DHT22;5477;48.806;9.154;2023-06-01T07:50:28;21.20;94.80
10848;DHT22;5477;48.806;9.154;2023-06-01T07:52:58;21.30;94.20
10848;DHT22;5477;48.806;9.154;2023-06-01T07:55:25;21.40;93.80
10848;DHT22;5477;48.806;9.154;2023-06-01T07:57:53;21.40;92.90
10848;DHT22;5477;48.806;9.154;2023-06-01T08:00:23;21.50;92.90
10848;DHT22;5477;48.806;9.154;2023-06-01T08:02:52;21.50;92.90
10848;DHT22;5477;48.806;9.154;2023-06-01T08:05:20;21.60;93.00
10848;DHT22;5477;48.806;9.154;2023-06-01T08:07:48;21.80;92.90
10848;DHT22;5477;48.806;9.154;2023-06-01T08:10:16;21.90;93.00
10848;DHT22;5477;48.806;9.154;2023-06-01T08:12:44;22.00;92.80
10848;DHT22;5477;48.806;9.154;2023-06-01T08:15:14;22.00;92.30
10848;DHT22;5477;48.806;9.154;2023-06-01T08:17:44;22.10;92.40
10848;DHT22;5477;48.806;9.154;2023-06-01T08:20:12;22.10;91.70
10848;DHT22;5477;48.806;9.154;2023-06-01T08:22:40;22.10;91.70
10848;DHT22;5477;48.806;9.154;2023-06-01T08:25:08;22.30;91.70
10848;DHT22;5477;48.806;9.154;2023-06-01T08:27:36;22.30;91.50
10848;DHT22;5477;48.806;9.154;2023-06-01T08:30:06;22.20;91.60
10848;DHT22;5477;48.806;9.154;2023-06-01T08:32:34;22.20;90.70
10848;DHT22;5477;48.806;9.154;2023-06-01T08:35:04;22.20;90.30
10848;DHT22;5477;48.806;9.154;2023-06-01T08:37:33;22.30;89.80
10848;DHT22;5477;48.806;9.154;2023-06-01T08:40:01;22.40;89.20
10848;DHT22;5477;48.806;9.154;2023-06-01T08:42:37;22.50;89.80
10848;DHT22;5477;48.806;9.154;2023-06-01T08:45:07;22.60;88.30
10848;DHT22;5477;48.806;9.154;2023-06-01T08:47:36;22.70;88.20
10848;DHT22;5477;48.806;9.154;2023-06-01T08:50:09;22.70;87.50
10848;DHT22;5477;48.806;9.154;2023-06-01T08:52:38;22.70;87.50
10848;DHT22;5477;48.806;9.154;2023-06-01T08:55:07;22.80;87.10
10848;DHT22;5477;48.806;9.154;2023-06-01T08:57:35;22.80;86.30
10848;DHT22;5477;48.806;9.154;2023-06-01T09:00:04;22.90;87.10
10848;DHT22;5477;48.806;9.154;2023-06-01T09:02:34;23.00;86.00
10848;DHT22;5477;48.806;9.154;2023-06-01T09:05:02;23.10;85.90
10848;DHT22;5477;48.806;9.154;2023-06-01T09:07:32;23.10;85.20
10848;DHT22;5477;48.806;9.154;2023-06-01T09:10:01;23.30;83.80
10848;DHT22;5477;48.806;9.154;2023-06-01T09:12:29;23.30;83.70
10848;DHT22;5477;48.806;9.154;2023-06-01T09:15:08;23.20;83.90
10848;DHT22;5477;48.806;9.154;2023-06-01T09:17:37;23.30;83.70
10848;DHT22;5477;48.806;9.154;2023-06-01T09:20:06;23.40;82.90
10848;DHT22;5477;48.806;9.154;2023-06-01T09:22:41;23.50;83.10
10848;DHT22;5477;48.806;9.154;2023-06-01T09:25:10;23.60;83.50
10848;DHT22;5477;48.806;9.154;2023-06-01T09:27:45;23.70;83.90
10848;DHT22;5477;48.806;9.154;2023-06-01T09:30:13;23.90;82.90
10848;DHT22;5477;48.806;9.154;2023-06-01T09:32:41;24.00;81.90
10848;DHT22;5477;48.806;9.154;2023-06-01T09:35:11;24.10;81.80
10848;DHT22;5477;48.806;9.154;2023-06-01T09:37:54;24.20;81.60
10848;DHT22;5477;48.806;9.154;2023-06-01T09:40:22;24.50;80.80
10848;DHT22;5477;48.806;9.154;2023-06-01T09:42:50;24.70;80.20
10848;DHT22;5477;48.806;9.154;2023-06-01T09:45:19;24.90;79.10
10848;DHT22;5477;48.806;9.154;2023-06-01T09:47:49;25.10;78.00
10848;DHT22;5477;48.806;9.154;2023-06-01T09:50:33;25.30;77.10
10848;DHT22;5477;48.806;9.154;2023-06-01T09:53:03;25.20;77.40
10848;DHT22;5477;48.806;9.154;2023-06-01T09:55:32;25.30;77.00
10848;DHT22;5477;48.806;9.154;2023-06-01T09:58:19;25.50;76.30
10848;DHT22;5477;48.806;9.154;2023-06-01T10:00:49;25.70;74.70
10848;DHT22;5477;48.806;9.154;2023-06-01T10:03:18;25.90;73.90
10848;DHT22;5477;48.806;9.154;2023-06-01T10:05:47;26.00;74.00
10848;DHT22;5477;48.806;9.154;2023-06-01T10:08:18;26.10;73.00
10848;DHT22;5477;48.806;9.154;2023-06-01T10:10:49;26.20;72.00
10848;DHT22;5477;48.806;9.154;2023-06-01T10:13:17;26.40;71.60
10848;DHT22;5477;48.806;9.154;2023-06-01T10:15:49;26.50;70.00
10848;DHT22;5477;48.806;9.154;2023-06-01T10:18:17;26.50;69.10
10848;DHT22;5477;48.806;9.154;2023-06-01T10:20:46;26.60;69.50
10848;DHT22;5477;48.806;9.154;2023-06-01T10:23:14;26.80;68.70
10848;DHT22;5477;48.806;9.154;2023-06-01T10:25:59;27.00;68.40
10848;DHT22;5477;48.806;9.154;2023-06-01T10:28:34;27.00;66.60
10848;DHT22;5477;48.806;9.154;2023-06-01T10:31:36;27.20;66.00
10848;DHT22;5477;48.806;9.154;2023-06-01T10:34:05;27.20;64.80
10848;DHT22;5477;48.806;9.154;2023-06-01T10:39:52;27.50;61.90
10848;DHT22;5477;48.806;9.154;2023-06-01T10:42:40;27.70;61.30
10848;DHT22;5477;48.806;9.154;2023-06-01T10:45:35;28.00;60.40
10848;DHT22;5477;48.806;9.154;2023-06-01T10:48:04;27.80;59.30
10848;DHT22;5477;48.806;9.154;2023-06-01T10:50:33;28.00;56.60
10848;DHT22;5477;48.806;9.154;2023-06-01T10:53:24;28.00;56.10
10848;DHT22;5477;48.806;9.154;2023-06-01T10:56:20;28.10;56.70
10848;DHT22;5477;48.806;9.154;2023-06-01T10:59:11;28.40;56.40
10848;DHT22;5477;48.806;9.154;2023-06-01T11:01:43;28.70;54.70
10848;DHT22;5477;48.806;9.154;2023-06-01T11:04:12;28.50;54.70
10848;DHT22;5477;48.806;9.154;2023-06-01T11:06:41;28.80;55.10
10848;DHT22;5477;48.806;9.154;2023-06-01T11:09:12;29.00;53.90
10848;DHT22;5477;48.806;9.154;2023-06-01T11:12:00;29.10;53.60
10848;DHT22;5477;48.806;9.154;2023-06-01T11:14:30;29.10;52.80
10848;DHT22;5477;48.806;9.154;2023-06-01T11:17:26;29.40;52.00
10848;DHT22;5477;48.806;9.154;2023-06-01T11:20:02;29.60;51.40
10848;DHT22;5477;48.806;9.154;2023-06-01T11:22:34;29.80;51.40
10848;DHT22;5477;48.806;9.154;2023-06-01T11:25:04;29.90;51.20
10848;DHT22;5477;48.806;9.154;2023-06-01T11:27:36;30.20;51.20
10848;DHT22;5477;48.806;9.154;2023-06-01T11:30:07;30.20;51.00
10848;DHT22;5477;48.806;9.154;2023-06-01T11:32:39;29.70;51.20
10848;DHT22;5477;48.806;9.154;2023-06-01T11:35:18;29.60;50.00
10848;DHT22;5477;48.806;9.154;2023-06-01T11:37:55;29.80;49.90
10848;DHT22;5477;48.806;9.154;2023-06-01T11:40:24;30.20;49.50
10848;DHT22;5477;48.806;9.154;2023-06-01T11:42:57;30.20;49.40
10848;DHT22;5477;48.806;9.154;2023-06-01T11:45:27;30.00;49.00
10848;DHT22;5477;48.806;9.154;2023-06-01T11:47:55;30.20;48.40
10848;DHT22;5477;48.806;9.154;2023-06-01T11:50:23;30.70;47.00
10848;DHT22;5477;48.806;9.154;2023-06-01T11:52:54;30.80;45.90
10848;DHT22;5477;48.806;9.154;2023-06-01T11:55:23;30.70;45.50
10848;DHT22;5477;48.806;9.154;2023-06-01T11:57:52;30.70;45.90
10848;DHT22;5477;48.806;9.154;2023-06-01T12:00:20;30.70;46.40
10848;DHT22;5477;48.806;9.154;2023-06-01T12:03:05;30.70;47.00
10848;DHT22;5477;48.806;9.154;2023-06-01T12:05:38;30.70;45.90
10848;DHT22;5477;48.806;9.154;2023-06-01T12:08:06;30.80;45.10
10848;DHT22;5477;48.806;9.154;2023-06-01T12:10:35;30.80;43.90
10848;DHT22;5477;48.806;9.154;2023-06-01T12:13:03;31.00;44.10
10848;DHT22;5477;48.806;9.154;2023-06-01T12:15:31;31.50;45.00
10848;DHT22;5477;48.806;9.154;2023-06-01T12:18:00;32.10;44.60
10848;DHT22;5477;48.806;9.154;2023-06-01T12:20:29;32.10;44.00
10848;DHT22;5477;48.806;9.154;2023-06-01T12:22:58;32.20;43.80
10848;DHT22;5477;48.806;9.154;2023-06-01T12:25:27;32.20;45.80
10848;DHT22;5477;48.806;9.154;2023-06-01T12:28:05;31.70;46.00
10848;DHT22;5477;48.806;9.154;2023-06-01T12:30:34;31.90;45.90
10848;DHT22;5477;48.806;9.154;2023-06-01T12:33:03;32.00;45.40
10848;DHT22;5477;48.806;9.154;2023-06-01T12:35:32;31.90;46.50
10848;DHT22;5477;48.806;9.154;2023-06-01T12:38:05;31.90;47.10
10848;DHT22;5477;48.806;9.154;2023-06-01T12:40:34;31.80;47.30
10848;DHT22;5477;48.806;9.154;2023-06-01T12:43:02;32.10;47.20
10848;DHT22;5477;48.806;9.154;2023-06-01T12:45:39;32.50;47.50
10848;DHT22;5477;48.806;9.154;2023-06-01T12:48:09;33.10;47.30
10848;DHT22;5477;48.806;9.154;2023-06-01T12:50:56;33.30;46.90
10848;DHT22;5477;48.806;9.154;2023-06-01T12:53:26;33.00;46.80
10848;DHT22;5477;48.806;9.154;2023-06-01T12:55:54;32.70;46.90
10848;DHT22;5477;48.806;9.154;2023-06-01T12:58:22;32.90;46.70
10848;DHT22;5477;48.806;9.154;2023-06-01T13:00:50;33.20;46.20
10848;DHT22;5477;48.806;9.154;2023-06-01T13:03:39;33.50;46.00
10848;DHT22;5477;48.806;9.154;2023-06-01T13:06:07;33.50;45.80
10848;DHT22;5477;48.806;9.154;2023-06-01T13:08:35;33.60;45.60
10848;DHT22;5477;48.806;9.154;2023-06-01T13:11:05;33.20;45.50
10848;DHT22;5477;48.806;9.154;2023-06-01T13:13:33;33.60;45.60
10848;DHT22;5477;48.806;9.154;2023-06-01T13:16:02;34.00;45.00
10848;DHT22;5477;48.806;9.154;2023-06-01T13:18:30;33.90;44.70
10848;DHT22;5477;48.806;9.154;2023-06-01T13:21:00;33.10;45.00
10848;DHT22;5477;48.806;9.154;2023-06-01T13:23:29;33.20;44.90
10848;DHT22;5477;48.806;9.154;2023-06-01T13:25:57;33.30;44.60
10848;DHT22;5477;48.806;9.154;2023-06-01T13:28:26;33.20;44.50
10848;DHT22;5477;48.806;9.154;2023-06-01T13:30:54;33.00;44.20
10848;DHT22;5477;48.806;9.154;2023-06-01T13:33:22;32.80;45.10
10848;DHT22;5477;48.806;9.154;2023-06-01T13:35:50;33.60;44.30
10848;DHT22;5477;48.806;9.154;2023-06-01T13:38:20;34.30;43.40
10848;DHT22;5477;48.806;9.154;2023-06-01T13:40:49;34.40;42.10
10848;DHT22;5477;48.806;9.154;2023-06-01T13:43:17;33.90;42.40
10848;DHT22;5477;48.806;9.154;2023-06-01T13:45:45;33.60;42.30
10848;DHT22;5477;48.806;9.154;2023-06-01T13:48:13;33.20;42.60
10848;DHT22;5477;48.806;9.154;2023-06-01T13:50:46;33.40;42.40
10848;DHT22;5477;48.806;9.154;2023-06-01T13:53:14;33.60;41.80
10848;DHT22;5477;48.806;9.154;2023-06-01T13:55:43;33.70;41.50
10848;DHT22;5477;48.806;9.154;2023-06-01T13:58:12;33.70;41.10
10848;DHT22;5477;48.806;9.154;2023-06-01T14:00:40;33.80;41.20
10848;DHT22;5477;48.806;9.154;2023-06-01T14:03:09;33.90;40.60
10848;DHT22;5477;48.806;9.154;2023-06-01T14:05:37;33.90;40.50
10848;DHT22;5477;48.806;9.154;2023-06-01T14:08:10;34.30;39.70
10848;DHT22;5477;48.806;9.154;2023-06-01T14:10:38;35.50;39.40
10848;DHT22;5477;48.806;9.154;2023-06-01T14:13:09;35.40;38.50
10848;DHT22;5477;48.806;9.154;2023-06-01T14:15:37;35.00;38.50
10848;DHT22;5477;48.806;9.154;2023-06-01T14:18:05;34.80;38.90
10848;DHT22;5477;48.806;9.154;2023-06-01T14:20:33;34.40;39.10
10848;DHT22;5477;48.806;9.154;2023-06-01T14:23:02;34.70;38.90
10848;DHT22;5477;48.806;9.154;2023-06-01T14:25:30;35.30;38.40
10848;DHT22;5477;48.806;9.154;2023-06-01T14:27:58;35.80;37.60
10848;DHT22;5477;48.806;9.154;2023-06-01T14:30:27;36.70;36.90
10848;DHT22;5477;48.806;9.154;2023-06-01T14:32:55;36.60;36.60
10848;DHT22;5477;48.806;9.154;2023-06-01T14:35:23;36.30;36.70
10848;DHT22;5477;48.806;9.154;2023-06-01T14:37:53;36.10;36.70
10848;DHT22;5477;48.806;9.154;2023-06-01T14:40:22;35.70;37.50
10848;DHT22;5477;48.806;9.154;2023-06-01T14:42:50;35.70;37.50
10848;DHT22;5477;48.806;9.154;2023-06-01T14:45:18;35.60;37.70
10848;DHT22;5477;48.806;9.154;2023-06-01T14:47:49;36.00;37.30
10848;DHT22;5477;48.806;9.154;2023-06-01T14:50:17;36.10;37.30
10848;DHT22;5477;48.806;9.154;2023-06-01T14:52:46;36.10;37.40
10848;DHT22;5477;48.806;9.154;2023-06-01T14:55:14;36.20;36.80
10848;DHT22;5477;48.806;9.154;2023-06-01T14:57:43;36.60;36.40
10848;DHT22;5477;48.806;9.154;2023-06-01T15:00:12;36.40;36.40
10848;DHT22;5477;48.806;9.154;2023-06-01T15:02:41;36.40;36.90
10848;DHT22;5477;48.806;9.154;2023-06-01T15:05:10;36.70;36.00
10848;DHT22;5477;48.806;9.154;2023-06-01T15:07:38;37.30;35.90
10848;DHT22;5477;48.806;9.154;2023-06-01T15:10:07;37.50;35.50
10848;DHT22;5477;48.806;9.154;2023-06-01T15:12:36;37.30;35.90
10848;DHT22;5477;48.806;9.154;2023-06-01T15:15:05;36.70;36.10
10848;DHT22;5477;48.806;9.154;2023-06-01T15:17:33;37.10;35.90
10848;DHT22;5477;48.806;9.154;2023-06-01T15:20:01;36.70;35.30
10848;DHT22;5477;48.806;9.154;2023-06-01T15:22:30;36.60;35.80
10848;DHT22;5477;48.806;9.154;2023-06-01T15:24:58;37.20;36.00
10848;DHT22;5477;48.806;9.154;2023-06-01T15:27:26;37.10;35.20
10848;DHT22;5477;48.806;9.154;2023-06-01T15:29:54;36.30;35.20
10848;DHT22;5477;48.806;9.154;2023-06-01T15:32:22;36.40;36.00
10848;DHT22;5477;48.806;9.154;2023-06-01T15:34:50;36.40;35.40
10848;DHT22;5477;48.806;9.154;2023-06-01T15:37:18;36.00;35.50
10848;DHT22;5477;48.806;9.154;2023-06-01T15:39:49;36.10;36.20
10848;DHT22;5477;48.806;9.154;2023-06-01T15:42:17;36.70;35.40
10848;DHT22;5477;48.806;9.154;2023-06-01T15:44:45;36.80;34.80
10848;DHT22;5477;48.806;9.154;2023-06-01T15:47:13;37.20;34.70
10848;DHT22;5477;48.806;9.154;2023-06-01T15:49:41;37.30;34.80
10848;DHT22;5477;48.806;9.154;2023-06-01T15:52:09;37.10;34.50
10848;DHT22;5477;48.806;9.154;2023-06-01T15:54:37;37.00;34.60
10848;DHT22;5477;48.806;9.154;2023-06-01T15:57:07;36.60;34.30
10848;DHT22;5477;48.806;9.154;2023-06-01T15:59:35;36.50;34.90
10848;DHT22;5477;48.806;9.154;2023-06-01T16:02:03;37.00;34.60
10848;DHT22;5477;48.806;9.154;2023-06-01T16:04:31;37.10;34.10
10848;DHT22;5477;48.806;9.154;2023-06-01T16:06:59;36.90;34.20